sensor_id;sensor_type;location;lat;lon;timestamp;pressure;altitude;pressure_sealevel;temperature
82636;BMP280;72317;37.280;-121.948;2024-01-10T09:32:59;99662.50;;;6.97
82636;BMP280;72317;37.280;-121.948;2024-01-10T09:35:26;99679.00;;;6.83
82636;BMP280;72317;37.280;-121.948;2024-01-10T09:37:52;99661.84;;;6.81
82636;BMP280;72317;37.280;-121.948;2024-01-10T09:40:19;99647.50;;;6.85
82636;BMP280;72317;37.280;-121.948;2024-01-10T09:42:51;99624.81;;;6.95
82636;BMP280;72317;37.280;-121.948;2024-01-10T09:45:18;99630.47;;;6.93
82636;BMP280;72317;37.280;-121.948;2024-01-10T09:47:49;99644.28;;;6.76
82636;BMP280;72317;37.280;-121.948;2024-01-10T09:50:15;99636.81;;;6.62
82636;BMP280;72317;37.280;-121.948;2024-01-10T09:55:15;99607.88;;;6.84
82636;BMP280;72317;37.280;-121.948;2024-01-10T09:57:42;99603.63;;;6.79
82636;BMP280;72317;37.280;-121.948;2024-01-10T10:00:10;99603.91;;;6.74
82636;BMP280;72317;37.280;-121.948;2024-01-10T10:02:38;99588.00;;;6.78
82636;BMP280;72317;37.280;-121.948;2024-01-10T10:05:15;99586.25;;;6.85
82636;BMP280;72317;37.280;-121.948;2024-01-10T10:07:49;99590.06;;;6.88
82636;BMP280;72317;37.280;-121.948;2024-01-10T10:10:16;99590.38;;;6.83
82636;BMP280;72317;37.280;-121.948;2024-01-10T10:12:50;99595.78;;;6.86
82636;BMP280;72317;37.280;-121.948;2024-01-10T10:15:21;99599.03;;;6.76
82636;BMP280;72317;37.280;-121.948;2024-01-10T10:17:49;99590.16;;;6.69
82636;BMP280;72317;37.280;-121.948;2024-01-10T10:20:27;99590.16;;;6.69
82636;BMP280;72317;37.280;-121.948;2024-01-10T10:25:35;99586.25;;;6.62
82636;BMP280;72317;37.280;-121.948;2024-01-10T10:28:02;99572.00;;;6.51
82636;BMP280;72317;37.280;-121.948;2024-01-10T10:30:31;99562.44;;;6.47
82636;BMP280;72317;37.280;-121.948;2024-01-10T10:32:57;99567.94;;;6.34
82636;BMP280;72317;37.280;-121.948;2024-01-10T10:35:23;99555.34;;;6.31
82636;BMP280;72317;37.280;-121.948;2024-01-10T10:37:51;99537.66;;;6.43
82636;BMP280;72317;37.280;-121.948;2024-01-10T10:40:18;99522.00;;;6.37
82636;BMP280;72317;37.280;-121.948;2024-01-10T10:42:56;99531.88;;;6.37
82636;BMP280;72317;37.280;-121.948;2024-01-10T10:45:23;99534.78;;;6.28
82636;BMP280;72317;37.280;-121.948;2024-01-10T10:47:59;99530.88;;;6.22
82636;BMP280;72317;37.280;-121.948;2024-01-10T10:50:32;99531.09;;;6.14
82636;BMP280;72317;37.280;-121.948;2024-01-10T10:53:00;99513.25;;;6.37
82636;BMP280;72317;37.280;-121.948;2024-01-10T10:55:29;99520.94;;;6.42
82636;BMP280;72317;37.280;-121.948;2024-01-10T10:57:56;99525.72;;;6.33
82636;BMP280;72317;37.280;-121.948;2024-01-10T11:00:24;99527.31;;;6.37
82636;BMP280;72317;37.280;-121.948;2024-01-10T11:02:54;99526.38;;;6.26
82636;BMP280;72317;37.280;-121.948;2024-01-10T11:05:21;99513.84;;;6.27
82636;BMP280;72317;37.280;-121.948;2024-01-10T11:07:49;99520.59;;;6.21
82636;BMP280;72317;37.280;-121.948;2024-01-10T11:10:25;99515.59;;;6.16
82636;BMP280;72317;37.280;-121.948;2024-01-10T11:21:46;99454.75;;;6.14
82636;BMP280;72317;37.280;-121.948;2024-01-10T11:24:18;99461.56;;;6.12
82636;BMP280;72317;37.280;-121.948;2024-01-10T11:26:45;99452.53;;;6.16
82636;BMP280;72317;37.280;-121.948;2024-01-10T11:29:11;99458.47;;;6.32
82636;BMP280;72317;37.280;-121.948;2024-01-10T11:31:39;99466.44;;;6.09
82636;BMP280;72317;37.280;-121.948;2024-01-10T11:34:05;99456.25;;;6.12
82636;BMP280;72317;37.280;-121.948;2024-01-10T11:36:31;99466.63;;;6.20
82636;BMP280;72317;37.280;-121.948;2024-01-10T11:39:03;99479.53;;;6.18
82636;BMP280;72317;37.280;-121.948;2024-01-10T11:41:37;99488.38;;;6.26
82636;BMP280;72317;37.280;-121.948;2024-01-10T11:46:59;99503.88;;;6.20
82636;BMP280;72317;37.280;-121.948;2024-01-10T11:49:25;99498.94;;;6.22
82636;BMP280;72317;37.280;-121.948;2024-01-10T11:51:56;99506.41;;;6.13
82636;BMP280;72317;37.280;-121.948;2024-01-10T11:54:36;99505.13;;;6.03
82636;BMP280;72317;37.280;-121.948;2024-01-10T11:57:07;99491.75;;;6.00
82636;BMP280;72317;37.280;-121.948;2024-01-10T11:59:34;99485.31;;;5.78
82636;BMP280;72317;37.280;-121.948;2024-01-10T12:02:01;99441.44;;;5.91
82636;BMP280;72317;37.280;-121.948;2024-01-10T12:04:32;99413.13;;;5.99
82636;BMP280;72317;37.280;-121.948;2024-01-10T12:06:58;99392.75;;;5.83
82636;BMP280;72317;37.280;-121.948;2024-01-10T12:09:24;99362.47;;;5.92
82636;BMP280;72317;37.280;-121.948;2024-01-10T12:11:51;99328.81;;;5.99
82636;BMP280;72317;37.280;-121.948;2024-01-10T12:14:17;99319.09;;;5.84
82636;BMP280;72317;37.280;-121.948;2024-01-10T12:16:43;99295.81;;;5.77
82636;BMP280;72317;37.280;-121.948;2024-01-10T12:19:09;99261.09;;;5.90
82636;BMP280;72317;37.280;-121.948;2024-01-10T12:21:36;99248.09;;;5.85
82636;BMP280;72317;37.280;-121.948;2024-01-10T12:24:06;99226.72;;;5.77
82636;BMP280;72317;37.280;-121.948;2024-01-10T12:26:32;99219.31;;;5.64
82636;BMP280;72317;37.280;-121.948;2024-01-10T12:28:59;99208.69;;;5.64
82636;BMP280;72317;37.280;-121.948;2024-01-10T12:31:30;99173.06;;;5.68
82636;BMP280;72317;37.280;-121.948;2024-01-10T12:33:59;99157.25;;;5.75
82636;BMP280;72317;37.280;-121.948;2024-01-10T12:36:25;99163.09;;;5.58
82636;BMP280;72317;37.280;-121.948;2024-01-10T12:38:51;99148.59;;;5.52
82636;BMP280;72317;37.280;-121.948;2024-01-10T12:41:18;99123.47;;;5.49
82636;BMP280;72317;37.280;-121.948;2024-01-10T12:43:54;99112.75;;;5.39
82636;BMP280;72317;37.280;-121.948;2024-01-10T12:46:21;99098.94;;;5.29
82636;BMP280;72317;37.280;-121.948;2024-01-10T12:49:06;99081.34;;;5.18
82636;BMP280;72317;37.280;-121.948;2024-01-10T12:51:34;99057.97;;;5.27
82636;BMP280;72317;37.280;-121.948;2024-01-10T12:54:03;99028.44;;;5.32
82636;BMP280;72317;37.280;-121.948;2024-01-10T12:56:33;99037.75;;;5.19
82636;BMP280;72317;37.280;-121.948;2024-01-10T12:59:01;99007.84;;;5.22
82636;BMP280;72317;37.280;-121.948;2024-01-10T13:01:27;98980.25;;;5.34
82636;BMP280;72317;37.280;-121.948;2024-01-10T13:03:53;98956.47;;;5.41
82636;BMP280;72317;37.280;-121.948;2024-01-10T13:06:19;98941.75;;;5.50
82636;BMP280;72317;37.280;-121.948;2024-01-10T13:08:48;98940.69;;;5.55
82636;BMP280;72317;37.280;-121.948;2024-01-10T13:11:14;98895.72;;;5.80
82636;BMP280;72317;37.280;-121.948;2024-01-10T13:13:41;98907.84;;;5.74
82636;BMP280;72317;37.280;-121.948;2024-01-10T13:16:08;98936.53;;;5.61
82636;BMP280;72317;37.280;-121.948;2024-01-10T13:18:38;98958.19;;;5.60
82636;BMP280;72317;37.280;-121.948;2024-01-10T13:21:05;98982.00;;;5.52
82636;BMP280;72317;37.280;-121.948;2024-01-10T13:23:38;98993.03;;;5.54
82636;BMP280;72317;37.280;-121.948;2024-01-10T13:26:05;99015.72;;;5.48
82636;BMP280;72317;37.280;-121.948;2024-01-10T13:28:35;99016.63;;;5.60
82636;BMP280;72317;37.280;-121.948;2024-01-10T13:31:01;99008.06;;;5.73
82636;BMP280;72317;37.280;-121.948;2024-01-10T13:33:28;99023.19;;;5.73
82636;BMP280;72317;37.280;-121.948;2024-01-10T13:35:55;99050.84;;;5.68
82636;BMP280;72317;37.280;-121.948;2024-01-10T13:38:21;99064.56;;;5.70
82636;BMP280;72317;37.280;-121.948;2024-01-10T13:40:49;99096.66;;;5.54
82636;BMP280;72317;37.280;-121.948;2024-01-10T13:43:15;99111.78;;;5.54
82636;BMP280;72317;37.280;-121.948;2024-01-10T13:45:42;99114.41;;;5.50
82636;BMP280;72317;37.280;-121.948;2024-01-10T13:48:08;99123.25;;;5.58
82636;BMP280;72317;37.280;-121.948;2024-01-10T13:50:36;99139.03;;;5.47
82636;BMP280;72317;37.280;-121.948;2024-01-10T13:53:02;99144.53;;;5.35
82636;BMP280;72317;37.280;-121.948;2024-01-10T13:55:30;99129.81;;;5.38
82636;BMP280;72317;37.280;-121.948;2024-01-10T13:57:56;99109.44;;;5.49
82636;BMP280;72317;37.280;-121.948;2024-01-10T14:00:23;99116.66;;;5.48
82636;BMP280;72317;37.280;-121.948;2024-01-10T14:02:49;99114.44;;;5.54
82636;BMP280;72317;37.280;-121.948;2024-01-10T14:05:15;99108.91;;;5.66
82636;BMP280;72317;37.280;-121.948;2024-01-10T14:07:41;99126.19;;;5.53
82636;BMP280;72317;37.280;-121.948;2024-01-10T14:10:10;99132.25;;;5.50
82636;BMP280;72317;37.280;-121.948;2024-01-10T14:12:37;99148.66;;;5.55
82636;BMP280;72317;37.280;-121.948;2024-01-10T14:15:03;99152.00;;;5.52
82636;BMP280;72317;37.280;-121.948;2024-01-10T14:17:29;99160.59;;;5.42
82636;BMP280;72317;37.280;-121.948;2024-01-10T14:19:56;99134.84;;;5.46
82636;BMP280;72317;37.280;-121.948;2024-01-10T14:22:22;99110.88;;;5.69
82636;BMP280;72317;37.280;-121.948;2024-01-10T14:24:49;99104.81;;;5.72
82636;BMP280;72317;37.280;-121.948;2024-01-10T14:27:16;99104.56;;;5.85
82636;BMP280;72317;37.280;-121.948;2024-01-10T14:29:42;99116.72;;;5.86
82636;BMP280;72317;37.280;-121.948;2024-01-10T14:32:09;99133.88;;;5.88
82636;BMP280;72317;37.280;-121.948;2024-01-10T14:34:39;99130.88;;;5.93
82636;BMP280;72317;37.280;-121.948;2024-01-10T14:37:06;99145.00;;;6.01
82636;BMP280;72317;37.280;-121.948;2024-01-10T14:39:34;99163.78;;;6.15
82636;BMP280;72317;37.280;-121.948;2024-01-10T14:42:08;99172.59;;;6.23
82636;BMP280;72317;37.280;-121.948;2024-01-10T14:44:39;99186.00;;;6.30
82636;BMP280;72317;37.280;-121.948;2024-01-10T14:47:06;99192.41;;;6.29
82636;BMP280;72317;37.280;-121.948;2024-01-10T14:49:32;99204.47;;;6.19
82636;BMP280;72317;37.280;-121.948;2024-01-10T14:51:58;99221.13;;;6.13
82636;BMP280;72317;37.280;-121.948;2024-01-10T14:54:24;99217.97;;;6.03
82636;BMP280;72317;37.280;-121.948;2024-01-10T14:56:50;99221.25;;;5.93
82636;BMP280;72317;37.280;-121.948;2024-01-10T14:59:18;99212.06;;;5.87
82636;BMP280;72317;37.280;-121.948;2024-01-10T15:01:45;99181.34;;;5.90
82636;BMP280;72317;37.280;-121.948;2024-01-10T15:04:12;99177.59;;;5.94
82636;BMP280;72317;37.280;-121.948;2024-01-10T15:06:45;99179.66;;;5.78
82636;BMP280;72317;37.280;-121.948;2024-01-10T15:09:15;99176.22;;;5.77
82636;BMP280;72317;37.280;-121.948;2024-01-10T15:11:42;99187.28;;;5.79
82636;BMP280;72317;37.280;-121.948;2024-01-10T15:14:08;99164.88;;;5.80
82636;BMP280;72317;37.280;-121.948;2024-01-10T15:16:35;99152.41;;;5.85
82636;BMP280;72317;37.280;-121.948;2024-01-10T15:19:01;99140.59;;;5.82
82636;BMP280;72317;37.280;-121.948;2024-01-10T15:21:28;99141.34;;;5.79
82636;BMP280;72317;37.280;-121.948;2024-01-10T15:23:55;99129.34;;;5.92
82636;BMP280;72317;37.280;-121.948;2024-01-10T15:26:21;99116.56;;;6.01
82636;BMP280;72317;37.280;-121.948;2024-01-10T15:28:49;99116.69;;;6.16
82636;BMP280;72317;37.280;-121.948;2024-01-10T15:31:16;99122.94;;;6.34
82636;BMP280;72317;37.280;-121.948;2024-01-10T15:33:43;99133.28;;;6.43
82636;BMP280;72317;37.280;-121.948;2024-01-10T15:36:09;99167.97;;;6.53
82636;BMP280;72317;37.280;-121.948;2024-01-10T15:38:39;99206.34;;;6.52
82636;BMP280;72317;37.280;-121.948;2024-01-10T15:41:07;99228.84;;;6.58
82636;BMP280;72317;37.280;-121.948;2024-01-10T15:43:35;99250.16;;;6.62
82636;BMP280;72317;37.280;-121.948;2024-01-10T15:46:01;99264.56;;;6.61
82636;BMP280;72317;37.280;-121.948;2024-01-10T15:48:27;99275.97;;;6.61
82636;BMP280;72317;37.280;-121.948;2024-01-10T15:50:55;99268.28;;;6.86
82636;BMP280;72317;37.280;-121.948;2024-01-10T15:53:22;99281.00;;;7.04
82636;BMP280;72317;37.280;-121.948;2024-01-10T15:55:48;99302.78;;;7.16
82636;BMP280;72317;37.280;-121.948;2024-01-10T15:58:18;99318.13;;;7.30
82636;BMP280;72317;37.280;-121.948;2024-01-10T16:00:44;99348.19;;;7.31
82636;BMP280;72317;37.280;-121.948;2024-01-10T16:03:11;99355.16;;;7.42
82636;BMP280;72317;37.280;-121.948;2024-01-10T16:05:37;99359.47;;;7.58
82636;BMP280;72317;37.280;-121.948;2024-01-10T16:08:03;99376.28;;;7.65
82636;BMP280;72317;37.280;-121.948;2024-01-10T16:10:29;99388.88;;;7.72
82636;BMP280;72317;37.280;-121.948;2024-01-10T16:12:56;99408.34;;;7.76
82636;BMP280;72317;37.280;-121.948;2024-01-10T16:15:22;99421.75;;;7.83
82636;BMP280;72317;37.280;-121.948;2024-01-10T16:17:48;99425.56;;;7.86
82636;BMP280;72317;37.280;-121.948;2024-01-10T16:20:14;99441.94;;;7.81
82636;BMP280;72317;37.280;-121.948;2024-01-10T16:22:40;99439.31;;;7.88
82636;BMP280;72317;37.280;-121.948;2024-01-10T16:25:07;99450.38;;;7.90
82636;BMP280;72317;37.280;-121.948;2024-01-10T16:27:33;99447.13;;;8.11
82636;BMP280;72317;37.280;-121.948;2024-01-10T16:29:59;99454.00;;;8.19
82636;BMP280;72317;37.280;-121.948;2024-01-10T16:32:26;99446.53;;;8.39
82636;BMP280;72317;37.280;-121.948;2024-01-10T16:34:52;99444.97;;;8.34
82636;BMP280;72317;37.280;-121.948;2024-01-10T16:37:19;99453.69;;;8.27
82636;BMP280;72317;37.280;-121.948;2024-01-10T16:39:45;99470.22;;;8.44
82636;BMP280;72317;37.280;-121.948;2024-01-10T16:42:12;99474.31;;;8.38
82636;BMP280;72317;37.280;-121.948;2024-01-10T16:44:41;99483.88;;;8.39
82636;BMP280;72317;37.280;-121.948;2024-01-10T16:47:07;99500.63;;;8.32
82636;BMP280;72317;37.280;-121.948;2024-01-10T16:49:34;99495.72;;;8.41
82636;BMP280;72317;37.280;-121.948;2024-01-10T16:52:00;99490.63;;;8.84
82636;BMP280;72317;37.280;-121.948;2024-01-10T16:54:26;99475.00;;;8.97
82636;BMP280;72317;37.280;-121.948;2024-01-10T16:56:52;99471.19;;;8.90
82636;BMP280;72317;37.280;-121.948;2024-01-10T16:59:18;99487.59;;;8.85
82636;BMP280;72317;37.280;-121.948;2024-01-10T17:01:46;99502.03;;;8.77
82636;BMP280;72317;37.280;-121.948;2024-01-10T17:04:12;99502.06;;;8.88
82636;BMP280;72317;37.280;-121.948;2024-01-10T17:06:38;99507.06;;;8.97
82636;BMP280;72317;37.280;-121.948;2024-01-10T17:09:04;99514.38;;;9.10
82636;BMP280;72317;37.280;-121.948;2024-01-10T17:11:31;99515.88;;;9.01
82636;BMP280;72317;37.280;-121.948;2024-01-10T17:13:57;99524.63;;;8.90
82636;BMP280;72317;37.280;-121.948;2024-01-10T17:16:24;99522.25;;;8.78
82636;BMP280;72317;37.280;-121.948;2024-01-10T17:18:50;99539.03;;;8.72
82636;BMP280;72317;37.280;-121.948;2024-01-10T17:21:16;99534.16;;;8.92
82636;BMP280;72317;37.280;-121.948;2024-01-10T17:23:42;99532.63;;;8.90
82636;BMP280;72317;37.280;-121.948;2024-01-10T17:26:09;99529.59;;;8.96
82636;BMP280;72317;37.280;-121.948;2024-01-10T17:28:35;99535.31;;;8.98
82636;BMP280;72317;37.280;-121.948;2024-01-10T17:31:01;99547.13;;;8.93
82636;BMP280;72317;37.280;-121.948;2024-01-10T17:33:27;99550.59;;;9.01
82636;BMP280;72317;37.280;-121.948;2024-01-10T17:35:54;99558.63;;;9.01
82636;BMP280;72317;37.280;-121.948;2024-01-10T17:38:20;99550.66;;;9.11
82636;BMP280;72317;37.280;-121.948;2024-01-10T17:40:46;99559.44;;;9.15
82636;BMP280;72317;37.280;-121.948;2024-01-10T17:43:13;99562.88;;;9.16
82636;BMP280;72317;37.280;-121.948;2024-01-10T17:45:39;99563.66;;;9.20
82636;BMP280;72317;37.280;-121.948;2024-01-10T17:48:06;99574.75;;;9.18
82636;BMP280;72317;37.280;-121.948;2024-01-10T17:50:32;99565.59;;;9.19
82636;BMP280;72317;37.280;-121.948;2024-01-10T17:52:58;99564.13;;;9.33
82636;BMP280;72317;37.280;-121.948;2024-01-10T17:55:27;99562.56;;;9.35
82636;BMP280;72317;37.280;-121.948;2024-01-10T17:57:53;99574.06;;;9.39
82636;BMP280;72317;37.280;-121.948;2024-01-10T18:00:19;99551.16;;;9.45
82636;BMP280;72317;37.280;-121.948;2024-01-10T18:02:49;99548.84;;;9.40
82636;BMP280;72317;37.280;-121.948;2024-01-10T18:05:15;99536.66;;;9.57
82636;BMP280;72317;37.280;-121.948;2024-01-10T18:07:41;99526.34;;;9.63
82636;BMP280;72317;37.280;-121.948;2024-01-10T18:10:08;99523.72;;;9.77
82636;BMP280;72317;37.280;-121.948;2024-01-10T18:12:34;99538.25;;;9.69
82636;BMP280;72317;37.280;-121.948;2024-01-10T18:15:01;99540.13;;;9.51
82636;BMP280;72317;37.280;-121.948;2024-01-10T18:17:27;99548.50;;;9.49
82636;BMP280;72317;37.280;-121.948;2024-01-10T18:19:53;99543.56;;;9.58
82636;BMP280;72317;37.280;-121.948;2024-01-10T18:22:19;99541.28;;;9.71
82636;BMP280;72317;37.280;-121.948;2024-01-10T18:24:45;99544.72;;;9.61
82636;BMP280;72317;37.280;-121.948;2024-01-10T18:27:11;99557.28;;;9.46
82636;BMP280;72317;37.280;-121.948;2024-01-10T18:29:38;99563.72;;;9.34
82636;BMP280;72317;37.280;-121.948;2024-01-10T18:32:04;99547.28;;;9.36
82636;BMP280;72317;37.280;-121.948;2024-01-10T18:34:30;99499.22;;;9.57
82636;BMP280;72317;37.280;-121.948;2024-01-10T18:36:57;99464.47;;;9.68
82636;BMP280;72317;37.280;-121.948;2024-01-10T18:39:23;99484.69;;;9.55
82636;BMP280;72317;37.280;-121.948;2024-01-10T18:41:49;99464.47;;;9.82
82636;BMP280;72317;37.280;-121.948;2024-01-10T18:44:17;99477.09;;;9.67
82636;BMP280;72317;37.280;-121.948;2024-01-10T18:46:43;99474.78;;;9.55
82636;BMP280;72317;37.280;-121.948;2024-01-10T18:49:10;99466.78;;;9.55
82636;BMP280;72317;37.280;-121.948;2024-01-10T18:51:37;99443.06;;;9.89
82636;BMP280;72317;37.280;-121.948;2024-01-10T18:54:03;99418.91;;;10.36
82636;BMP280;72317;37.280;-121.948;2024-01-10T18:56:30;99443.41;;;10.05
82636;BMP280;72317;37.280;-121.948;2024-01-10T18:58:56;99440.41;;;9.93
82636;BMP280;72317;37.280;-121.948;2024-01-10T19:01:22;99433.91;;;9.83
82636;BMP280;72317;37.280;-121.948;2024-01-10T19:03:48;99433.16;;;9.93
82636;BMP280;72317;37.280;-121.948;2024-01-10T19:06:14;99443.44;;;9.98
82636;BMP280;72317;37.280;-121.948;2024-01-10T19:08:41;99445.72;;;9.96
82636;BMP280;72317;37.280;-121.948;2024-01-10T19:11:07;99424.28;;;10.18
82636;BMP280;72317;37.280;-121.948;2024-01-10T19:13:35;99405.94;;;10.30
82636;BMP280;72317;37.280;-121.948;2024-01-10T19:16:08;99394.44;;;10.23
82636;BMP280;72317;37.280;-121.948;2024-01-10T19:18:37;99381.03;;;10.37
82636;BMP280;72317;37.280;-121.948;2024-01-10T19:21:04;99389.09;;;10.23
82636;BMP280;72317;37.280;-121.948;2024-01-10T19:23:31;99369.97;;;10.24
82636;BMP280;72317;37.280;-121.948;2024-01-10T19:25:57;99364.59;;;10.24
82636;BMP280;72317;37.280;-121.948;2024-01-10T19:28:27;99346.22;;;10.33
82636;BMP280;72317;37.280;-121.948;2024-01-10T19:30:53;99353.94;;;10.21
82636;BMP280;72317;37.280;-121.948;2024-01-10T19:33:23;99334.44;;;10.20
82636;BMP280;72317;37.280;-121.948;2024-01-10T19:35:49;99318.38;;;10.17
82636;BMP280;72317;37.280;-121.948;2024-01-10T19:38:16;99303.91;;;10.07
82636;BMP280;72317;37.280;-121.948;2024-01-10T19:40:42;99266.81;;;10.13
82636;BMP280;72317;37.280;-121.948;2024-01-10T19:43:08;99226.28;;;10.11
82636;BMP280;72317;37.280;-121.948;2024-01-10T19:45:34;99193.06;;;10.04
82636;BMP280;72317;37.280;-121.948;2024-01-10T19:48:00;99146.06;;;10.00
82636;BMP280;72317;37.280;-121.948;2024-01-10T19:50:27;99115.41;;;10.12
82636;BMP280;72317;37.280;-121.948;2024-01-10T19:52:53;99068.72;;;10.16
82636;BMP280;72317;37.280;-121.948;2024-01-10T19:55:19;99021.31;;;10.20
82636;BMP280;72317;37.280;-121.948;2024-01-10T19:57:45;98942.59;;;10.48
82636;BMP280;72317;37.280;-121.948;2024-01-10T20:00:12;98923.81;;;10.52
82636;BMP280;72317;37.280;-121.948;2024-01-10T20:02:38;98894.63;;;10.61
82636;BMP280;72317;37.280;-121.948;2024-01-10T20:05:05;98879.56;;;10.44
82636;BMP280;72317;37.280;-121.948;2024-01-10T20:07:31;98836.69;;;10.47
82636;BMP280;72317;37.280;-121.948;2024-01-10T20:09:57;98800.72;;;10.48
82636;BMP280;72317;37.280;-121.948;2024-01-10T20:12:23;98741.19;;;10.64
82636;BMP280;72317;37.280;-121.948;2024-01-10T20:14:50;98700.97;;;10.44
82636;BMP280;72317;37.280;-121.948;2024-01-10T20:17:16;98641.00;;;10.38
82636;BMP280;72317;37.280;-121.948;2024-01-10T20:19:42;98553.69;;;10.68
82636;BMP280;72317;37.280;-121.948;2024-01-10T20:22:08;98450.78;;;11.37
82636;BMP280;72317;37.280;-121.948;2024-01-10T20:24:35;98496.09;;;11.80
82636;BMP280;72317;37.280;-121.948;2024-01-10T20:27:01;98517.38;;;12.20
82636;BMP280;72317;37.280;-121.948;2024-01-10T20:29:28;98536.69;;;11.82
82636;BMP280;72317;37.280;-121.948;2024-01-10T20:31:55;98557.16;;;11.60
82636;BMP280;72317;37.280;-121.948;2024-01-10T20:34:21;98553.78;;;11.20
82636;BMP280;72317;37.280;-121.948;2024-01-10T20:36:47;98513.47;;;11.27
82636;BMP280;72317;37.280;-121.948;2024-01-10T20:39:13;98407.88;;;11.99
82636;BMP280;72317;37.280;-121.948;2024-01-10T20:41:40;98481.72;;;11.74
82636;BMP280;72317;37.280;-121.948;2024-01-10T20:44:06;98490.41;;;12.53
82636;BMP280;72317;37.280;-121.948;2024-01-10T20:46:33;98564.53;;;12.05
82636;BMP280;72317;37.280;-121.948;2024-01-10T20:48:59;98613.28;;;11.51
82636;BMP280;72317;37.280;-121.948;2024-01-10T20:51:25;98406.31;;;13.19
82636;BMP280;72317;37.280;-121.948;2024-01-10T20:53:51;98609.06;;;12.02
82636;BMP280;72317;37.280;-121.948;2024-01-10T20:56:17;98637.31;;;11.55
82636;BMP280;72317;37.280;-121.948;2024-01-10T20:58:44;98578.19;;;11.62
82636;BMP280;72317;37.280;-121.948;2024-01-10T21:01:10;98530.75;;;11.42
82636;BMP280;72317;37.280;-121.948;2024-01-10T21:03:36;98451.03;;;11.59
82636;BMP280;72317;37.280;-121.948;2024-01-10T21:06:03;98401.00;;;11.69
82636;BMP280;72317;37.280;-121.948;2024-01-10T21:08:30;98344.16;;;11.74
82636;BMP280;72317;37.280;-121.948;2024-01-10T21:10:56;98330.88;;;11.54
82636;BMP280;72317;37.280;-121.948;2024-01-10T21:13:22;98269.72;;;11.49
82636;BMP280;72317;37.280;-121.948;2024-01-10T21:15:49;98181.59;;;11.64
82636;BMP280;72317;37.280;-121.948;2024-01-10T21:18:15;98167.31;;;11.41
82636;BMP280;72317;37.280;-121.948;2024-01-10T21:20:41;98099.66;;;11.75
82636;BMP280;72317;37.280;-121.948;2024-01-10T21:23:07;98103.19;;;11.60
82636;BMP280;72317;37.280;-121.948;2024-01-10T21:25:34;98082.25;;;11.55
82636;BMP280;72317;37.280;-121.948;2024-01-10T21:28:07;98015.22;;;11.67
82636;BMP280;72317;37.280;-121.948;2024-01-10T21:30:33;98030.03;;;11.59
